Time;durP1;ratioP1;P1;durP2;ratioP2;P2;SDS_P1;SDS_P2;PMS_P1;PMS_P2;Temp;Humidity;BMP_temperature;BMP_pressure;BME280_temperature;BME280_humidity;BME280_pressure;Samples;Min_cycle;Max_cycle;Signal;HPM_P1;HPM_P2
2022/09/25 00:00:36;;;;;;;6.47;1.27;;;8.40;99.90;;;;;;4889624;29;20055;-85
2022/09/25 00:03:02;;;;;;;9.05;1.10;;;8.30;99.90;;;;;;4889903;29;20464;-86
2022/09/25 00:05:28;;;;;;;6.35;1.40;;;8.60;99.90;;;;;;4887327;29;20104;-86
2022/09/25 00:07:55;;;;;;;7.07;1.55;;;8.30;99.90;;;;;;4887138;29;20044;-85
2022/09/25 00:10:24;;;;;;;5.70;1.95;;;8.30;99.90;;;;;;4887534;29;20052;-86
2022/09/25 00:12:50;;;;;;;7.57;1.50;;;8.30;99.90;;;;;;4889859;29;20428;-86
2022/09/25 00:15:16;;;;;;;10.52;1.58;;;8.30;99.90;;;;;;4888807;29;20046;-87
2022/09/25 00:17:42;;;;;;;7.50;1.48;;;8.40;99.90;;;;;;4892320;29;20552;-86
2022/09/25 00:20:09;;;;;;;4.93;1.80;;;8.40;99.90;;;;;;4873576;29;20036;-85
2022/09/25 00:22:34;;;;;;;7.40;1.50;;;8.40;99.90;;;;;;4875828;29;20052;-85
2022/09/25 00:25:01;;;;;;;5.95;1.67;;;8.40;99.90;;;;;;4872329;29;20052;-85
2022/09/25 00:27:27;;;;;;;7.93;2.08;;;8.70;99.90;;;;;;4874043;29;20044;-85
2022/09/25 00:29:52;;;;;;;9.60;1.83;;;8.60;99.90;;;;;;4890780;29;20055;-86
2022/09/25 00:32:19;;;;;;;6.28;1.70;;;8.70;99.90;;;;;;4889690;29;20028;-86
2022/09/25 00:34:44;;;;;;;5.85;2.00;;;8.60;99.90;;;;;;4888551;29;20033;-86
2022/09/25 00:37:10;;;;;;;7.65;2.50;;;8.70;99.90;;;;;;4872849;29;20088;-86
2022/09/25 00:39:35;;;;;;;6.80;1.88;;;8.70;99.90;;;;;;4874161;29;20040;-86
2022/09/25 00:42:01;;;;;;;11.23;2.00;;;8.80;99.90;;;;;;4872252;29;20119;-85
2022/09/25 00:44:55;;;;;;;4.95;2.08;;;8.80;99.90;;;;;;4888360;29;20491;-85
2022/09/25 00:47:41;;;;;;;4.65;2.17;;;8.80;99.90;;;;;;4885568;29;20040;-86
2022/09/25 00:50:42;;;;;;;7.00;2.00;;;8.90;99.90;;;;;;4888971;29;20048;-86
2022/09/25 00:53:19;;;;;;;11.48;1.90;;;8.80;99.90;;;;;;4888521;29;20448;-86
2022/09/25 00:55:45;;;;;;;5.35;1.50;;;8.90;99.90;;;;;;4889116;29;20036;-85
2022/09/25 00:58:15;;;;;;;6.68;1.45;;;8.80;99.90;;;;;;4888219;29;20087;-86
2022/09/25 01:00:41;;;;;;;7.38;2.50;;;8.80;99.90;;;;;;4889980;29;20411;-86
2022/09/25 01:03:07;;;;;;;7.45;1.90;;;8.80;99.90;;;;;;4888331;29;20047;-86
2022/09/25 01:05:36;;;;;;;3.92;1.20;;;8.80;99.90;;;;;;4874195;29;20087;-86
2022/09/25 01:08:05;;;;;;;3.75;1.65;;;8.80;99.90;;;;;;4887696;29;20664;-85
2022/09/25 01:10:31;;;;;;;6.15;1.65;;;8.70;99.90;;;;;;4890723;29;20070;-86
2022/09/25 01:12:57;;;;;;;4.70;1.60;;;8.70;99.90;;;;;;4888372;29;20036;-85
2022/09/25 01:15:39;;;;;;;8.40;1.70;;;8.60;99.90;;;;;;4887580;29;20462;-85
2022/09/25 01:18:35;;;;;;;9.60;2.00;;;8.60;99.90;;;;;;4869642;29;20143;-86
2022/09/25 01:21:04;;;;;;;8.27;1.88;;;8.60;99.90;;;;;;4888734;29;20082;-86
2022/09/25 01:23:51;;;;;;;6.43;1.40;;;8.60;99.90;;;;;;4884710;29;20063;-86
2022/09/25 01:26:30;;;;;;;5.78;1.48;;;8.50;99.90;;;;;;4888771;29;20443;-86
2022/09/25 01:29:04;;;;;;;5.60;1.30;;;8.50;99.90;;;;;;4886197;29;20127;-85
2022/09/25 01:32:03;;;;;;;5.32;1.92;;;8.40;99.90;;;;;;4872539;29;20049;-86
2022/09/25 01:34:40;;;;;;;7.35;1.42;;;8.40;99.90;;;;;;4887286;29;20135;-86
2022/09/25 01:37:24;;;;;;;6.30;1.80;;;8.50;99.90;;;;;;4888496;29;20490;-85
2022/09/25 01:40:13;;;;;;;7.53;1.23;;;8.40;99.90;;;;;;4882393;29;20124;-85
2022/09/25 01:42:49;;;;;;;6.65;2.47;;;8.40;99.90;;;;;;4881287;29;20724;-86
2022/09/25 01:45:23;;;;;;;4.43;1.27;;;8.40;99.90;;;;;;4888850;29;20036;-86
2022/09/25 01:47:50;;;;;;;8.07;1.50;;;8.30;99.90;;;;;;4885496;29;20407;-85
2022/09/25 01:50:24;;;;;;;6.35;1.67;;;8.30;99.90;;;;;;4891672;29;20106;-85
2022/09/25 01:52:53;;;;;;;3.53;1.25;;;8.20;99.90;;;;;;4888109;29;20115;-86
2022/09/25 01:55:37;;;;;;;4.47;1.38;;;8.30;99.90;;;;;;4885400;29;20068;-86
2022/09/25 01:58:24;;;;;;;4.60;1.00;;;8.30;99.90;;;;;;4889731;29;20063;-85
2022/09/25 02:00:56;;;;;;;4.53;1.27;;;8.20;99.90;;;;;;4892484;29;20115;-85
2022/09/25 02:03:40;;;;;;;3.47;1.00;;;8.20;99.90;;;;;;4892306;29;20048;-86
2022/09/25 02:06:09;;;;;;;6.10;1.98;;;8.20;99.90;;;;;;4888351;29;20051;-86
2022/09/25 02:08:39;;;;;;;5.05;1.48;;;8.50;99.90;;;;;;4891774;29;20124;-86
2022/09/25 02:11:06;;;;;;;9.70;1.70;;;8.00;99.90;;;;;;4888960;29;20044;-86
2022/09/25 02:13:42;;;;;;;5.80;1.33;;;8.00;99.90;;;;;;4892541;29;21569;-85
2022/09/25 02:16:13;;;;;;;;;;;8.00;99.90;;;;;;4889508;29;20055;-86
2022/09/25 02:21:32;;;;;;;3.53;1.00;;;7.90;99.90;;;;;;4889842;29;20059;-86
2022/09/25 02:24:09;;;;;;;3.78;0.90;;;7.90;99.90;;;;;;4876446;29;20250;-86
2022/09/25 02:26:37;;;;;;;5.30;1.30;;;7.90;99.90;;;;;;4874688;29;20052;-86
2022/09/25 02:29:03;;;;;;;4.88;1.60;;;7.90;99.90;;;;;;4891972;29;20097;-85
2022/09/25 02:31:39;;;;;;;7.90;1.70;;;8.00;99.90;;;;;;4894160;29;20045;-86
2022/09/25 02:34:05;;;;;;;6.93;1.83;;;8.00;99.90;;;;;;4893638;29;20040;-86
2022/09/25 02:36:32;;;;;;;6.38;1.80;;;8.00;99.90;;;;;;4893210;29;20044;-86
2022/09/25 02:38:59;;;;;;;4.28;1.30;;;8.00;99.90;;;;;;4890880;29;20040;-85
2022/09/25 02:41:51;;;;;;;5.43;1.73;;;8.00;99.90;;;;;;4891564;29;20048;-85
2022/09/25 02:45:02;;;;;;;5.00;0.95;;;8.00;99.90;;;;;;4888313;29;20055;-85
2022/09/25 02:47:38;;;;;;;10.15;1.35;;;8.00;99.90;;;;;;4890605;29;20055;-85
2022/09/25 02:50:22;;;;;;;;;;;7.90;99.90;;;;;;4887731;29;20041;-86
2022/09/25 02:53:10;;;;;;;3.92;0.90;;;7.90;99.90;;;;;;4889269;29;20378;-86
2022/09/25 02:55:59;;;;;;;8.30;1.50;;;7.80;99.90;;;;;;4890578;29;20045;-85
2022/09/25 02:58:57;;;;;;;8.43;1.73;;;7.80;99.90;;;;;;4889051;29;20491;-86
2022/09/25 03:01:27;;;;;;;6.85;1.63;;;7.80;99.90;;;;;;4889060;29;20053;-86
2022/09/25 03:03:56;;;;;;;2.90;1.50;;;7.80;99.90;;;;;;4889274;29;20479;-86
2022/09/25 03:06:23;;;;;;;5.93;1.52;;;7.90;99.90;;;;;;4891988;29;20033;-86
2022/09/25 03:08:55;;;;;;;4.80;0.93;;;7.80;99.90;;;;;;4890779;29;20430;-86
2022/09/25 03:11:22;;;;;;;5.47;1.73;;;8.20;99.90;;;;;;4889402;29;20524;-86
2022/09/25 03:14:02;;;;;;;3.53;1.35;;;7.80;99.90;;;;;;4871413;29;20033;-85
2022/09/25 03:16:49;;;;;;;6.07;1.67;;;7.80;99.90;;;;;;4889560;29;20047;-86
2022/09/25 03:19:15;;;;;;;6.53;2.53;;;7.80;99.90;;;;;;4889818;29;20399;-86
2022/09/25 03:21:40;;;;;;;6.22;1.80;;;7.90;99.90;;;;;;4890315;29;20044;-87
2022/09/25 03:24:06;;;;;;;4.00;2.10;;;7.90;99.90;;;;;;4888013;29;20040;-86
2022/09/25 03:26:32;;;;;;;5.00;2.00;;;7.90;99.90;;;;;;4875998;29;20052;-86
2022/09/25 03:29:01;;;;;;;4.68;1.90;;;7.90;99.90;;;;;;4888860;29;21416;-85
2022/09/25 03:31:28;;;;;;;6.75;1.80;;;8.00;99.90;;;;;;4888063;29;20536;-85
2022/09/25 03:33:54;;;;;;;3.33;1.60;;;8.00;99.90;;;;;;4872067;29;20044;-85
2022/09/25 03:36:22;;;;;;;5.82;1.85;;;7.90;99.90;;;;;;4889954;29;20052;-85
2022/09/25 03:38:51;;;;;;;8.60;2.30;;;8.00;99.90;;;;;;4875622;29;20043;-85
2022/09/25 03:41:20;;;;;;;6.50;1.60;;;7.90;99.90;;;;;;4889769;29;20067;-86
2022/09/25 03:43:50;;;;;;;4.72;1.52;;;7.90;99.90;;;;;;4875556;29;20044;-86
2022/09/25 03:46:17;;;;;;;6.72;0.68;;;7.80;99.90;;;;;;4871325;29;20052;-86
2022/09/25 03:48:43;;;;;;;4.03;0.80;;;7.70;99.90;;;;;;4888330;29;20041;-85
2022/09/25 03:51:10;;;;;;;3.58;0.63;;;7.60;99.90;;;;;;4890306;29;20593;-85
2022/09/25 03:53:36;;;;;;;4.75;1.10;;;7.60;99.90;;;;;;4888605;29;20068;-85
2022/09/25 03:56:04;;;;;;;6.35;0.88;;;7.60;99.90;;;;;;4891697;29;20040;-85
2022/09/25 03:58:29;;;;;;;2.88;1.25;;;7.50;99.90;;;;;;4888797;29;20056;-85
2022/09/25 04:00:56;;;;;;;2.30;0.90;;;7.40;99.90;;;;;;4889424;29;20036;-86
2022/09/25 04:03:23;;;;;;;1.88;1.00;;;7.30;99.90;;;;;;4886052;29;20559;-86
2022/09/25 04:05:49;;;;;;;10.48;0.80;;;7.40;99.90;;;;;;4876316;29;20169;-86
2022/09/25 04:08:16;;;;;;;4.68;1.00;;;8.00;99.90;;;;;;4886119;29;20064;-86
2022/09/25 04:10:45;;;;;;;4.82;0.95;;;7.40;99.90;;;;;;4885717;29;20491;-86
2022/09/25 04:13:11;;;;;;;5.88;1.60;;;7.30;99.90;;;;;;4889207;29;20048;-86
2022/09/25 04:15:38;;;;;;;5.50;1.17;;;7.30;99.90;;;;;;4886855;29;20041;-85
2022/09/25 04:18:05;;;;;;;4.75;0.98;;;7.50;99.90;;;;;;4887324;29;20057;-85
2022/09/25 04:20:31;;;;;;;2.75;0.70;;;7.40;99.90;;;;;;4889826;29;20074;-85
2022/09/25 04:22:56;;;;;;;6.78;0.90;;;8.00;99.90;;;;;;4873959;29;20047;-85
2022/09/25 04:25:24;;;;;;;5.95;1.50;;;7.40;99.90;;;;;;4888590;29;20040;-85
2022/09/25 04:27:57;;;;;;;4.78;1.10;;;7.60;99.90;;;;;;4874611;29;20044;-85
2022/09/25 04:30:23;;;;;;;4.18;1.55;;;7.40;99.90;;;;;;4875875;29;20364;-85
2022/09/25 04:35:36;;;;;;;4.68;1.40;;;7.60;99.90;;;;;;4892879;29;20056;-85
2022/09/25 04:38:03;;;;;;;7.18;1.50;;;7.90;99.90;;;;;;4890391;29;20459;-85
2022/09/25 04:40:29;;;;;;;11.45;1.67;;;7.60;99.90;;;;;;4888547;29;20187;-85
2022/09/25 04:42:59;;;;;;;10.27;1.73;;;7.80;99.90;;;;;;4890080;29;20117;-86
2022/09/25 04:45:29;;;;;;;6.03;1.55;;;7.70;99.90;;;;;;4887033;29;20044;-86
2022/09/25 04:47:58;;;;;;;6.82;1.83;;;7.90;99.90;;;;;;4871758;29;20428;-86
2022/09/25 04:50:25;;;;;;;6.63;1.42;;;7.70;99.90;;;;;;4890604;29;20411;-86
2022/09/25 04:52:56;;;;;;;5.47;1.52;;;7.70;99.90;;;;;;4890857;29;20068;-86
2022/09/25 04:55:23;;;;;;;7.03;1.98;;;7.70;99.90;;;;;;4872292;29;20100;-87
2022/09/25 04:57:56;;;;;;;4.43;1.17;;;7.70;99.90;;;;;;4890407;29;20076;-86
2022/09/25 05:00:24;;;;;;;5.35;0.98;;;7.70;99.90;;;;;;4886657;29;20113;-85
2022/09/25 05:02:49;;;;;;;3.80;1.00;;;7.70;99.90;;;;;;4890512;29;20067;-85
2022/09/25 05:05:15;;;;;;;5.32;1.38;;;7.60;99.90;;;;;;4891192;29;20125;-86
2022/09/25 05:07:55;;;;;;;6.25;1.17;;;7.60;99.90;;;;;;4890399;29;20048;-85
2022/09/25 05:10:26;;;;;;;3.88;1.00;;;7.60;99.90;;;;;;4886024;29;20060;-85
2022/09/25 05:12:56;;;;;;;6.05;1.30;;;7.60;99.90;;;;;;4874848;29;20059;-86
2022/09/25 05:15:22;;;;;;;5.28;1.48;;;7.60;99.90;;;;;;4887312;29;20395;-85
2022/09/25 05:17:47;;;;;;;4.75;1.27;;;7.60;99.90;;;;;;4888520;29;20037;-85
2022/09/25 05:20:13;;;;;;;5.50;1.30;;;7.60;99.90;;;;;;4868887;29;20395;-85
2022/09/25 05:22:39;;;;;;;7.28;1.35;;;7.90;99.90;;;;;;4890757;29;20041;-85
2022/09/25 05:25:05;;;;;;;4.85;0.90;;;7.50;99.90;;;;;;4894154;29;20040;-85
2022/09/25 05:27:33;;;;;;;10.25;1.58;;;7.50;99.90;;;;;;4892079;29;20112;-85
2022/09/25 05:29:59;;;;;;;5.10;1.83;;;7.50;99.90;;;;;;4874155;29;20056;-86
2022/09/25 05:32:25;;;;;;;6.75;1.58;;;8.20;99.90;;;;;;4876505;29;20048;-86
2022/09/25 05:34:51;;;;;;;5.00;1.67;;;7.60;99.90;;;;;;4876808;29;20082;-87
2022/09/25 05:37:16;;;;;;;3.53;1.27;;;7.70;99.90;;;;;;4888365;29;20119;-84
2022/09/25 05:39:42;;;;;;;3.65;1.58;;;7.70;99.90;;;;;;4890784;29;20127;-84
2022/09/25 05:42:08;;;;;;;9.50;1.40;;;7.80;99.90;;;;;;4891996;29;20139;-85
2022/09/25 05:44:34;;;;;;;5.75;1.50;;;7.80;99.90;;;;;;4859383;29;20805;-84
2022/09/25 05:47:00;;;;;;;4.35;1.10;;;7.80;99.90;;;;;;4872235;29;20119;-84
2022/09/25 05:50:05;;;;;;;2.70;0.52;;;8.10;99.90;;;;;;4875934;29;20100;-86
2022/09/25 05:52:31;;;;;;;3.67;1.10;;;7.90;99.90;;;;;;4874240;29;20123;-85
2022/09/25 05:54:57;;;;;;;1.33;0.70;;;7.80;99.90;;;;;;4891756;29;20124;-85
2022/09/25 05:57:23;;;;;;;1.15;0.52;;;7.70;99.90;;;;;;4875126;29;20411;-85
2022/09/25 05:59:48;;;;;;;1.30;0.60;;;7.70;99.90;;;;;;4888113;29;20502;-86
2022/09/25 06:03:02;;;;;;;2.55;0.77;;;7.70;99.90;;;;;;4890566;29;20040;-86
2022/09/25 06:05:50;;;;;;;6.13;1.20;;;8.10;99.90;;;;;;4904542;29;20048;-85
2022/09/25 06:08:49;;;;;;;2.60;0.40;;;9.20;99.90;;;;;;4867146;29;20048;-85
2022/09/25 06:11:52;;;;;;;2.00;0.50;;;10.00;99.90;;;;;;4889259;29;20523;-85
2022/09/25 06:26:17;;;;;;;4.55;0.88;;;12.60;99.90;;;;;;4837167;29;20152;-87
2022/09/25 06:33:12;;;;;;;5.78;2.42;;;12.40;99.90;;;;;;4835815;29;20062;-85
2022/09/25 06:35:43;;;;;;;2.03;0.73;;;13.90;99.90;;;;;;4812572;29;20520;-83
2022/09/25 06:38:28;;;;;;;3.40;0.98;;;15.30;99.90;;;;;;4806584;29;20509;-85
2022/09/25 06:41:39;;;;;;;6.65;1.02;;;16.30;99.90;;;;;;4797225;29;20060;-85
2022/09/25 06:44:39;;;;;;;3.03;0.50;;;16.70;99.90;;;;;;4786820;29;20517;-84
2022/09/25 08:57:30;;;;;;;6.20;0.70;;;14.80;99.90;;;;;;4892592;29;20056;-86
2022/09/25 09:01:04;;;;;;;2.15;0.20;;;15.10;99.90;;;;;;4841950;29;20129;-85
2022/09/25 09:16:39;;;;;;;4.68;0.63;;;16.70;99.90;;;;;;4836958;29;20068;-85
2022/09/25 09:20:27;;;;;;;5.68;1.08;;;16.70;99.90;;;;;;4846232;29;20078;-86
2022/09/25 09:23:00;;;;;;;2.65;0.30;;;16.60;99.90;;;;;;4823882;29;20070;-85
2022/09/25 09:26:27;;;;;;;1.95;0.10;;;16.20;99.90;;;;;;4894084;29;20048;-84
2022/09/25 09:29:55;;;;;;;6.43;0.30;;;15.70;99.90;;;;;;4868310;29;20040;-85
2022/09/25 10:41:11;;;;;;;1.25;0.20;;;19.00;99.90;;;;;;4891411;29;20047;-88
2022/09/25 11:06:32;;;;;;;2.08;0.20;;;17.30;99.90;;;;;;4868661;29;20096;-87
2022/09/25 11:09:37;;;;;;;5.30;0.40;;;16.80;99.90;;;;;;4856339;29;20126;-83
2022/09/25 11:12:55;;;;;;;4.43;0.50;;;16.60;99.90;;;;;;4839139;29;20064;-85
2022/09/25 12:19:32;;;;;;;4.93;0.50;;;15.50;99.90;;;;;;4827379;29;20229;-84
2022/09/25 12:33:48;;;;;;;3.03;0.32;;;16.70;99.90;;;;;;4837886;29;20172;-86
2022/09/25 12:41:40;;;;;;;1.77;0.20;;;16.30;99.90;;;;;;4799125;29;20074;-85
2022/09/25 12:48:49;;;;;;;0.57;0.20;;;15.90;99.90;;;;;;4722067;30;20573;-86
2022/09/25 13:06:52;;;;;;;2.47;0.30;;;15.40;99.90;;;;;;4765918;30;20050;-88
2022/09/25 13:51:17;;;;;;;2.72;0.20;;;17.60;99.90;;;;;;4851198;29;20090;-85
2022/09/25 14:31:42;;;;;;;7.13;0.30;;;16.60;99.90;;;;;;4870560;29;20443;-88
2022/09/25 15:39:44;;;;;;;1.08;0.10;;;14.90;99.90;;;;;;4868574;29;20040;-84
2022/09/25 16:55:57;;;;;;;3.22;0.82;;;13.80;99.90;;;;;;4874635;29;20480;-91
2022/09/25 17:02:33;;;;;;;5.47;2.25;;;13.60;99.90;;;;;;4871004;29;20105;-86
2022/09/25 17:05:45;;;;;;;4.65;1.50;;;13.60;99.90;;;;;;4851788;29;20174;-85
2022/09/25 17:08:50;;;;;;;3.15;0.95;;;13.50;99.90;;;;;;4867489;29;20056;-85
2022/09/25 17:15:25;;;;;;;1.52;0.38;;;13.50;99.90;;;;;;4876079;29;20444;-89
2022/09/25 17:18:36;;;;;;;5.60;0.73;;;13.40;99.90;;;;;;4870857;29;20123;-84
2022/09/25 17:21:51;;;;;;;1.58;0.25;;;13.40;99.90;;;;;;4877522;29;20157;-84
2022/09/25 17:24:29;;;;;;;3.17;0.70;;;13.20;99.90;;;;;;4863619;29;20056;-85
2022/09/25 18:24:10;;;;;;;4.43;0.30;;;11.80;99.90;;;;;;4874220;29;20067;-86
2022/09/25 18:26:37;;;;;;;7.47;0.52;;;11.70;99.90;;;;;;4891585;29;20056;-82
2022/09/25 18:29:03;;;;;;;1.10;0.20;;;11.60;99.90;;;;;;4862812;29;20045;-83
2022/09/25 18:31:28;;;;;;;3.13;0.30;;;11.60;99.90;;;;;;4871420;29;20411;-83
2022/09/25 18:33:54;;;;;;;0.98;0.20;;;11.50;99.90;;;;;;4870823;29;20420;-82
2022/09/25 18:36:41;;;;;;;2.55;0.20;;;11.50;99.90;;;;;;4869657;29;20089;-85
2022/09/25 18:39:08;;;;;;;1.52;0.25;;;11.40;99.90;;;;;;4872339;29;20135;-84
2022/09/25 18:41:56;;;;;;;2.15;0.38;;;11.10;99.90;;;;;;4874919;29;20049;-83
2022/09/25 18:44:22;;;;;;;2.35;0.30;;;11.30;99.90;;;;;;4879155;29;20101;-84
2022/09/25 18:46:48;;;;;;;3.45;0.60;;;11.30;99.90;;;;;;4894811;29;20120;-83
2022/09/25 18:49:14;;;;;;;1.85;0.65;;;11.30;99.90;;;;;;4893961;29;20092;-84
2022/09/25 18:51:41;;;;;;;1.98;0.30;;;11.30;99.90;;;;;;4878767;29;20084;-83
2022/09/25 18:54:10;;;;;;;1.65;0.30;;;11.20;99.90;;;;;;4873682;29;20069;-83
2022/09/25 18:56:36;;;;;;;4.95;0.38;;;11.20;99.90;;;;;;4861067;29;20054;-83
2022/09/25 18:59:06;;;;;;;1.38;0.50;;;11.10;99.90;;;;;;4879376;29;20049;-83
2022/09/25 19:01:34;;;;;;;3.22;0.30;;;11.20;99.90;;;;;;4879691;29;20099;-84
2022/09/25 19:03:59;;;;;;;2.75;0.52;;;11.10;99.90;;;;;;4878679;29;20044;-83
2022/09/25 19:06:25;;;;;;;0.52;0.20;;;11.10;99.90;;;;;;4876205;29;20507;-83
2022/09/25 19:08:52;;;;;;;2.10;0.40;;;11.00;99.90;;;;;;4889488;29;20041;-83
2022/09/25 19:11:19;;;;;;;3.90;0.45;;;11.00;99.90;;;;;;4857533;29;20065;-82
2022/09/25 19:13:44;;;;;;;2.40;0.40;;;11.00;99.90;;;;;;4880277;29;20074;-83
2022/09/25 19:16:10;;;;;;;2.95;0.77;;;11.00;99.90;;;;;;4874643;29;20072;-85
2022/09/25 19:18:36;;;;;;;4.45;0.40;;;11.00;99.90;;;;;;4877173;29;20131;-82
2022/09/25 19:21:02;;;;;;;4.68;0.57;;;11.00;99.90;;;;;;4877326;29;20040;-83
2022/09/25 19:23:34;;;;;;;4.60;0.88;;;10.90;99.90;;;;;;4876883;29;20060;-85
2022/09/25 19:26:03;;;;;;;2.22;0.40;;;10.90;99.90;;;;;;4877804;29;20685;-83
2022/09/25 19:28:33;;;;;;;1.60;0.47;;;11.00;99.90;;;;;;4877418;29;20440;-85
2022/09/25 19:31:02;;;;;;;4.03;0.45;;;10.90;99.90;;;;;;4858174;29;20045;-86
2022/09/25 19:33:35;;;;;;;1.58;0.40;;;11.20;99.90;;;;;;4858869;29;20827;-85
2022/09/25 19:36:04;;;;;;;2.40;0.43;;;10.90;99.90;;;;;;4876477;29;20528;-85
2022/09/25 19:38:35;;;;;;;3.97;0.80;;;10.90;99.90;;;;;;4874473;29;20100;-86
2022/09/25 20:06:58;;;;;;;5.30;0.93;;;10.30;99.90;;;;;;4741696;30;20047;-85
2022/09/25 20:14:08;;;;;;;2.35;0.60;;;10.20;99.90;;;;;;4741563;30;20060;-86
2022/09/25 20:16:39;;;;;;;4.47;0.70;;;10.20;99.90;;;;;;4753932;29;20063;-84
2022/09/25 20:19:08;;;;;;;3.35;0.80;;;10.00;99.90;;;;;;4745500;30;20051;-84
2022/09/25 20:21:38;;;;;;;4.38;1.20;;;10.00;99.90;;;;;;4782568;29;20063;-84
2022/09/25 20:24:07;;;;;;;4.07;1.20;;;10.00;99.90;;;;;;4769034;29;20059;-84
2022/09/25 20:26:34;;;;;;;3.08;1.05;;;10.00;99.90;;;;;;4748762;30;20055;-83
2022/09/25 20:29:09;;;;;;;2.97;0.90;;;10.00;99.90;;;;;;4779695;29;20142;-86
2022/09/25 20:31:36;;;;;;;3.72;0.85;;;9.90;99.90;;;;;;4872752;29;20064;-84
2022/09/25 20:34:03;;;;;;;4.82;0.70;;;9.90;99.90;;;;;;4855391;29;20120;-84
2022/09/25 20:36:28;;;;;;;3.53;0.80;;;9.80;99.90;;;;;;4873824;29;20056;-85
2022/09/25 20:38:55;;;;;;;9.20;1.55;;;10.10;99.90;;;;;;4871307;29;20041;-83
2022/09/25 20:41:23;;;;;;;3.03;0.98;;;9.80;99.90;;;;;;4869431;29;20041;-84
2022/09/25 20:43:52;;;;;;;8.10;2.03;;;9.80;99.90;;;;;;4856393;29;20045;-83
2022/09/25 20:46:22;;;;;;;2.28;0.90;;;9.80;99.90;;;;;;4872265;29;20041;-84
2022/09/25 20:48:50;;;;;;;3.17;0.90;;;9.80;99.90;;;;;;4870909;29;20063;-84
2022/09/25 20:51:20;;;;;;;3.75;0.90;;;9.80;99.90;;;;;;4884656;29;20128;-84
2022/09/25 20:54:02;;;;;;;4.10;1.00;;;9.80;99.90;;;;;;4850312;29;20040;-84
2022/09/25 20:56:32;;;;;;;5.63;1.10;;;9.70;99.90;;;;;;4898507;29;20667;-84
2022/09/25 20:58:59;;;;;;;6.18;1.00;;;9.70;99.90;;;;;;4895160;29;20051;-84
2022/09/25 21:01:28;;;;;;;4.10;1.30;;;9.70;99.90;;;;;;4870643;29;20181;-84
2022/09/25 21:03:58;;;;;;;5.80;1.13;;;9.60;99.90;;;;;;4855099;29;20376;-84
2022/09/25 21:06:26;;;;;;;6.85;1.50;;;9.60;99.90;;;;;;4868700;29;20553;-84
2022/09/25 21:08:53;;;;;;;4.50;1.70;;;10.10;99.90;;;;;;4870806;29;20105;-85
2022/09/25 21:11:19;;;;;;;4.07;2.20;;;9.70;99.90;;;;;;4901830;29;20088;-84
2022/09/25 21:13:50;;;;;;;4.63;2.10;;;9.80;99.90;;;;;;4885048;29;20555;-84
2022/09/25 21:16:16;;;;;;;5.55;1.88;;;10.30;99.90;;;;;;4866509;29;20048;-85
2022/09/25 21:18:42;;;;;;;7.03;2.10;;;10.20;99.90;;;;;;4884881;29;20036;-86
2022/09/25 21:21:13;;;;;;;3.92;2.53;;;9.90;99.90;;;;;;4867299;29;20127;-85
2022/09/25 21:23:40;;;;;;;7.75;2.38;;;10.00;99.90;;;;;;4899131;29;20135;-85
2022/09/25 21:26:08;;;;;;;7.38;2.35;;;10.10;99.90;;;;;;4906173;29;20052;-84
2022/09/25 21:28:35;;;;;;;5.03;2.40;;;9.70;99.90;;;;;;4850060;29;20056;-85
2022/09/25 21:31:05;;;;;;;2.92;2.08;;;10.10;99.90;;;;;;4853616;29;20053;-84
2022/09/25 21:33:31;;;;;;;5.13;2.55;;;10.20;99.90;;;;;;4866553;29;20245;-84
2022/09/25 21:35:57;;;;;;;6.60;2.97;;;10.80;99.90;;;;;;4854412;29;20186;-85
2022/09/25 21:38:22;;;;;;;5.20;1.98;;;10.50;99.90;;;;;;4853955;29;20033;-84
2022/09/25 21:40:48;;;;;;;2.60;2.40;;;10.50;99.90;;;;;;4868723;29;20051;-84
2022/09/25 21:43:14;;;;;;;8.50;2.90;;;10.50;99.90;;;;;;4875591;29;20048;-87
2022/09/25 21:45:39;;;;;;;6.28;1.90;;;10.50;99.90;;;;;;4901283;29;20377;-86
2022/09/25 21:48:05;;;;;;;4.63;2.67;;;11.00;99.90;;;;;;4886780;29;20124;-86
2022/09/25 21:50:32;;;;;;;3.95;2.15;;;10.70;99.90;;;;;;4874043;29;20108;-84
2022/09/25 21:53:01;;;;;;;6.03;2.85;;;10.60;99.90;;;;;;4858606;29;20045;-85
2022/09/25 21:55:26;;;;;;;5.80;2.75;;;10.70;99.90;;;;;;4874791;29;20033;-84
2022/09/25 21:57:52;;;;;;;7.15;2.75;;;11.00;99.90;;;;;;4872627;29;20047;-85
2022/09/25 22:00:19;;;;;;;2.95;2.00;;;11.60;99.90;;;;;;4868356;29;20100;-85
2022/09/25 22:02:48;;;;;;;3.72;1.92;;;10.80;99.90;;;;;;4880542;29;20640;-84
2022/09/25 22:05:16;;;;;;;4.28;2.00;;;10.90;99.90;;;;;;4885863;29;20044;-87
2022/09/25 22:07:42;;;;;;;7.40;2.30;;;10.90;99.90;;;;;;4877789;29;20176;-85
2022/09/25 22:10:07;;;;;;;6.05;2.13;;;10.90;99.90;;;;;;4859925;29;20136;-85
2022/09/25 22:12:33;;;;;;;7.65;2.13;;;10.90;99.90;;;;;;4874044;29;20056;-84
2022/09/25 22:14:58;;;;;;;7.72;2.22;;;11.30;99.90;;;;;;4871657;29;20415;-84
2022/09/25 22:17:24;;;;;;;3.08;1.90;;;10.90;99.90;;;;;;4860808;29;20056;-85
2022/09/25 22:19:50;;;;;;;2.75;1.85;;;10.90;99.90;;;;;;4874753;29;20092;-84
2022/09/25 22:22:15;;;;;;;5.40;1.77;;;10.90;99.90;;;;;;4876911;29;20053;-85
2022/09/25 22:24:41;;;;;;;6.50;1.92;;;10.90;99.90;;;;;;4888224;29;20033;-85
2022/09/25 22:27:06;;;;;;;3.90;1.88;;;10.90;99.90;;;;;;4875405;29;20042;-84
2022/09/25 22:29:37;;;;;;;3.10;2.00;;;10.90;99.90;;;;;;4856842;29;20067;-84
2022/09/25 22:32:03;;;;;;;2.67;1.65;;;11.00;99.90;;;;;;4879739;29;20037;-85
2022/09/25 22:34:28;;;;;;;7.53;2.60;;;11.00;99.90;;;;;;4875833;29;20124;-84
2022/09/25 22:36:55;;;;;;;3.17;2.33;;;11.00;99.90;;;;;;4878741;29;20085;-84
2022/09/25 22:39:21;;;;;;;7.20;2.63;;;11.00;99.90;;;;;;4905755;29;20071;-84
2022/09/25 22:41:51;;;;;;;4.90;1.83;;;11.10;99.90;;;;;;4860440;29;20593;-84
2022/09/25 22:44:17;;;;;;;6.78;2.20;;;11.10;99.90;;;;;;4868217;29;20052;-84
2022/09/25 22:46:43;;;;;;;5.15;1.90;;;11.10;99.90;;;;;;4858668;29;20085;-85
2022/09/25 22:49:08;;;;;;;4.55;1.98;;;11.20;99.90;;;;;;4890042;29;20759;-85
2022/09/25 22:51:34;;;;;;;2.67;1.90;;;11.10;99.90;;;;;;4889062;29;20053;-85
2022/09/25 22:54:00;;;;;;;2.35;2.13;;;11.20;99.90;;;;;;4876049;29;20045;-86
2022/09/25 22:56:28;;;;;;;2.95;1.70;;;11.20;99.90;;;;;;4876337;29;20047;-84
2022/09/25 22:58:57;;;;;;;5.15;1.73;;;11.10;99.90;;;;;;4861180;29;20048;-84
2022/09/25 23:01:28;;;;;;;3.35;1.90;;;11.20;99.90;;;;;;4874607;29;20048;-84
2022/09/25 23:03:59;;;;;;;4.35;1.63;;;11.20;99.90;;;;;;4888286;29;20047;-85
2022/09/25 23:06:26;;;;;;;3.83;1.77;;;11.20;99.90;;;;;;4885524;29;20050;-85
2022/09/25 23:08:58;;;;;;;2.70;1.60;;;11.20;99.90;;;;;;4890292;29;20508;-84
2022/09/25 23:11:24;;;;;;;3.88;2.00;;;11.20;99.90;;;;;;4856261;29;20033;-84
2022/09/25 23:13:59;;;;;;;2.67;1.60;;;11.40;99.90;;;;;;4858137;29;21092;-84
2022/09/25 23:16:25;;;;;;;2.58;1.58;;;11.20;99.90;;;;;;4857717;29;20385;-85
2022/09/25 23:18:51;;;;;;;5.35;1.63;;;11.20;99.90;;;;;;4873439;29;20060;-85
2022/09/25 23:21:17;;;;;;;4.50;1.48;;;11.50;99.90;;;;;;4887105;29;20500;-85
2022/09/25 23:23:43;;;;;;;3.38;1.40;;;11.50;99.90;;;;;;4874442;29;20041;-87
2022/09/25 23:26:08;;;;;;;2.83;1.50;;;11.30;99.90;;;;;;4887269;29;20040;-85
2022/09/25 23:28:38;;;;;;;2.35;1.33;;;11.30;99.90;;;;;;4888661;29;20045;-84
2022/09/25 23:31:09;;;;;;;2.88;1.60;;;11.50;99.90;;;;;;4885894;29;20045;-84
2022/09/25 23:33:35;;;;;;;5.38;1.67;;;11.70;99.90;;;;;;4904816;29;20045;-84
2022/09/25 23:36:08;;;;;;;4.80;1.35;;;11.60;99.90;;;;;;4875661;29;20040;-84
2022/09/25 23:38:34;;;;;;;2.70;1.08;;;11.30;99.90;;;;;;4904934;29;20053;-85
2022/09/25 23:41:00;;;;;;;4.97;1.20;;;11.30;99.90;;;;;;4873707;29;21596;-85
2022/09/25 23:43:26;;;;;;;4.95;1.40;;;11.30;99.90;;;;;;4854543;29;20101;-84
2022/09/25 23:45:53;;;;;;;3.35;1.00;;;11.20;99.90;;;;;;4873388;29;20041;-85
2022/09/25 23:48:19;;;;;;;3.38;1.20;;;11.30;99.90;;;;;;4864676;29;20032;-85
2022/09/25 23:50:44;;;;;;;4.25;1.92;;;11.30;99.90;;;;;;4902179;29;20052;-85
2022/09/25 23:53:10;;;;;;;4.88;1.30;;;11.60;99.90;;;;;;4875806;29;20073;-85
2022/09/25 23:55:41;;;;;;;3.50;1.15;;;11.30;99.90;;;;;;4875525;29;20397;-84
2022/09/25 23:58:09;;;;;;;5.85;1.13;;;11.30;99.90;;;;;;4857784;29;20496;-86
